Time;durP1;ratioP1;P1;durP2;ratioP2;P2;SDS_P1;SDS_P2;PMS_P1;PMS_P2;Temp;Humidity;BMP_temperature;BMP_pressure;BME280_temperature;BME280_humidity;BME280_pressure;Samples;Min_cycle;Max_cycle;Signal;HPM_P1;HPM_P2
2022/10/17 00:00:48;;;;;;;9.60;7.03;;;;;;;5.04;76.56;100894.75;5024537;28;20032;-93
2022/10/17 00:03:13;;;;;;;8.73;5.93;;;;;;;5.00;77.13;100904.16;5024478;28;20056;-95
2022/10/17 00:05:40;;;;;;;10.43;5.93;;;;;;;5.00;76.82;100914.84;5024144;28;20028;-94
2022/10/17 00:08:06;;;;;;;7.75;5.53;;;;;;;4.88;77.29;100903.03;5024340;28;20181;-94
2022/10/17 00:10:31;;;;;;;11.38;5.57;;;;;;;4.82;76.94;100905.47;5039989;28;20111;-94
2022/10/17 00:12:57;;;;;;;7.60;5.10;;;;;;;4.75;77.07;100895.75;5023604;28;20028;-94
2022/10/17 00:15:22;;;;;;;8.68;5.90;;;;;;;4.86;77.51;100909.41;5023910;28;20028;-94
2022/10/17 00:17:48;;;;;;;11.43;5.00;;;;;;;4.85;76.97;100901.59;5023910;28;20115;-95
2022/10/17 00:20:13;;;;;;;6.90;5.28;;;;;;;4.82;76.94;100902.81;5023467;28;20029;-94
2022/10/17 00:22:39;;;;;;;8.10;5.18;;;;;;;4.84;76.69;100903.44;5024161;28;20069;-94
2022/10/17 00:25:05;;;;;;;6.78;4.72;;;;;;;4.74;77.05;100892.28;5023982;28;20119;-94
2022/10/17 00:27:34;;;;;;;7.80;5.60;;;;;;;4.84;76.35;100907.97;5024147;28;20032;-94
2022/10/17 00:29:59;;;;;;;7.75;4.97;;;;;;;4.96;77.04;100924.25;5022869;28;20053;-94
2022/10/17 00:32:25;;;;;;;9.30;5.00;;;;;;;4.77;77.00;100904.41;5023360;28;20040;-94
2022/10/17 00:34:50;;;;;;;7.18;5.03;;;;;;;4.76;76.91;100895.56;5023574;28;20506;-94
2022/10/17 00:37:15;;;;;;;7.80;5.30;;;;;;;4.82;76.77;100900.13;5024407;28;20028;-94
2022/10/17 00:39:41;;;;;;;8.73;5.25;;;;;;;4.77;76.76;100905.25;5023826;28;20039;-94
2022/10/17 00:42:11;;;;;;;8.05;5.25;;;;;;;4.76;77.24;100908.09;5024199;28;20064;-94
2022/10/17 00:44:40;;;;;;;6.18;4.88;;;;;;;4.84;77.34;100921.31;5024219;28;20090;-93
2022/10/17 00:47:08;;;;;;;7.93;5.78;;;;;;;4.76;77.66;100914.25;5057149;28;20032;-95
2022/10/17 00:49:34;;;;;;;8.73;6.15;;;;;;;4.75;77.03;100912.63;5023921;28;20031;-94
2022/10/17 00:52:02;;;;;;;7.25;5.28;;;;;;;4.80;77.55;100918.19;5023632;28;20036;-94
2022/10/17 00:54:30;;;;;;;8.20;5.45;;;;;;;4.79;77.22;100921.03;5039669;28;20105;-94
2022/10/17 00:56:56;;;;;;;9.80;5.60;;;;;;;4.67;76.87;100896.75;5023314;28;20107;-94
2022/10/17 00:59:21;;;;;;;9.38;4.95;;;;;;;4.75;76.85;100899.28;5022699;28;20048;-94
2022/10/17 01:02:21;;;;;;;10.38;6.43;;;;;;;4.95;76.75;100920.75;5023499;28;20025;-94
2022/10/17 01:04:49;;;;;;;8.20;5.45;;;;;;;4.96;76.79;100922.44;5040581;28;20036;-93
2022/10/17 01:07:14;;;;;;;9.80;5.38;;;;;;;4.90;76.82;100909.00;5023953;28;20031;-94
2022/10/17 01:09:40;;;;;;;8.65;4.90;;;;;;;4.85;76.22;100912.25;5023108;28;20028;-93
2022/10/17 01:12:25;;;;;;;6.15;4.30;;;;;;;4.91;76.17;100932.03;5023781;28;20038;-94
2022/10/17 01:15:28;;;;;;;5.65;4.18;;;;;;;4.89;75.50;100939.41;5039360;28;20028;-94
2022/10/17 01:18:02;;;;;;;8.38;5.20;;;;;;;4.83;76.12;100939.13;5074492;28;20028;-94
2022/10/17 01:21:15;;;;;;;7.93;5.10;;;;;;;4.72;75.98;100929.00;5055985;28;20050;-94
2022/10/17 01:23:58;;;;;;;7.53;5.22;;;;;;;4.64;76.70;100929.94;4972958;28;20049;-93
2022/10/17 01:26:24;;;;;;;10.90;4.95;;;;;;;4.62;77.98;100937.31;4972132;28;20109;-93
2022/10/17 01:29:31;;;;;;;9.20;5.43;;;;;;;4.50;76.80;100919.34;5021155;28;20095;-94
2022/10/17 01:32:17;;;;;;;8.77;4.88;;;;;;;4.48;76.43;100929.38;5053580;28;20499;-93
2022/10/17 01:34:44;;;;;;;7.40;5.20;;;;;;;4.50;76.42;100941.50;5021524;28;20041;-94
2022/10/17 01:37:23;;;;;;;7.47;5.07;;;;;;;4.38;76.74;100930.53;5039018;28;20033;-94
2022/10/17 01:40:11;;;;;;;6.35;4.70;;;;;;;4.41;77.21;100943.47;5022953;28;20028;-94
2022/10/17 01:42:41;;;;;;;12.98;6.13;;;;;;;4.23;77.88;100922.56;5055880;28;20024;-94
2022/10/17 01:45:11;;;;;;;7.57;5.38;;;;;;;4.37;77.53;100950.19;5024764;28;20033;-93
2022/10/17 01:47:37;;;;;;;13.88;6.00;;;;;;;4.35;77.55;100952.22;5023343;28;20040;-94
2022/10/17 01:50:08;;;;;;;10.52;6.68;;;;;;;4.36;77.06;100947.72;5035881;28;20078;-94
2022/10/17 01:52:42;;;;;;;7.30;5.03;;;;;;;4.25;77.97;100933.03;5003436;28;20029;-93
2022/10/17 01:55:10;;;;;;;9.15;5.00;;;;;;;4.15;77.38;100922.69;5008281;28;20409;-94
2022/10/17 01:57:41;;;;;;;7.45;5.18;;;;;;;4.27;77.11;100941.66;5039198;28;20029;-94
2022/10/17 02:00:10;;;;;;;9.57;5.35;;;;;;;4.24;77.50;100939.38;5019250;28;20037;-94
2022/10/17 02:02:35;;;;;;;7.75;5.53;;;;;;;4.25;78.04;100939.22;5002948;28;20071;-94
2022/10/17 02:05:01;;;;;;;7.10;5.38;;;;;;;4.24;77.08;100934.06;5006937;28;20513;-94
2022/10/17 02:07:26;;;;;;;6.30;4.97;;;;;;;4.14;77.13;100929.00;5022969;28;20032;-93
2022/10/17 02:09:52;;;;;;;8.00;5.10;;;;;;;4.07;76.98;100925.47;5023206;28;20060;-94
2022/10/17 02:12:26;;;;;;;9.25;5.90;;;;;;;4.01;77.06;100921.69;5022958;28;20478;-94
2022/10/17 02:15:26;;;;;;;7.45;5.28;;;;;;;4.23;77.26;100961.72;5038888;28;20132;-94
2022/10/17 02:18:15;;;;;;;7.28;4.93;;;;;;;4.19;76.83;100955.94;5039450;28;20036;-93
2022/10/17 02:21:02;;;;;;;8.85;5.13;;;;;;;4.18;77.51;100962.28;5038864;28;20036;-94
2022/10/17 02:23:36;;;;;;;8.38;5.47;;;;;;;4.13;77.71;100958.50;5023885;28;20505;-93
2022/10/17 02:26:02;;;;;;;9.20;5.20;;;;;;;4.17;76.77;100970.47;5021598;28;20119;-94
2022/10/17 02:28:31;;;;;;;8.23;5.38;;;;;;;4.05;77.00;100967.47;5055115;28;20060;-94
2022/10/17 02:31:01;;;;;;;9.50;5.22;;;;;;;3.89;77.38;100957.81;5022640;28;20042;-94
2022/10/17 02:33:33;;;;;;;8.30;5.75;;;;;;;3.78;77.58;100955.63;5022369;28;20024;-94
2022/10/17 02:36:01;;;;;;;6.80;4.78;;;;;;;3.75;76.86;100956.81;5041373;28;20082;-94
2022/10/17 02:38:27;;;;;;;9.65;5.60;;;;;;;3.58;77.81;100950.03;5026032;28;20032;-94
2022/10/17 02:40:52;;;;;;;9.98;5.57;;;;;;;3.68;78.42;100971.88;5025712;28;20563;-94
2022/10/17 02:43:19;;;;;;;9.43;5.00;;;;;;;3.68;78.11;100965.75;5025838;28;20024;-94
2022/10/17 02:45:44;;;;;;;8.15;5.05;;;;;;;3.69;77.83;100976.19;5041728;28;20025;-94
2022/10/17 02:48:21;;;;;;;9.40;5.25;;;;;;;3.71;77.93;100987.50;5026154;28;20075;-94
2022/10/17 02:51:07;;;;;;;14.82;5.13;;;;;;;3.69;77.62;100976.19;5042227;28;20032;-94
2022/10/17 02:53:49;;;;;;;7.95;5.07;;;;;;;3.76;77.56;100982.47;5026588;28;20456;-94
2022/10/17 02:56:19;;;;;;;6.60;4.97;;;;;;;3.63;76.98;100950.28;5043956;28;20452;-94
2022/10/17 02:58:46;;;;;;;7.30;5.15;;;;;;;3.77;77.58;100973.44;5026427;28;20037;-94
2022/10/17 03:01:12;;;;;;;8.23;5.30;;;;;;;3.73;77.28;100972.16;5021871;28;20021;-94
2022/10/17 03:03:37;;;;;;;6.95;5.05;;;;;;;3.72;77.66;100983.84;5005558;28;20025;-93
2022/10/17 03:06:03;;;;;;;9.68;5.47;;;;;;;3.49;77.85;100941.31;5026429;28;20063;-94
2022/10/17 03:08:28;;;;;;;7.00;5.13;;;;;;;3.75;76.96;100991.44;5025299;28;20020;-93
2022/10/17 03:10:54;;;;;;;10.80;4.63;;;;;;;3.62;76.44;100973.44;5024740;28;20047;-94
2022/10/17 03:13:19;;;;;;;8.82;5.20;;;;;;;3.43;76.63;100950.84;5024987;28;20024;-94
2022/10/17 03:15:45;;;;;;;8.48;5.22;;;;;;;3.49;76.63;100973.25;5025115;28;20036;-94
2022/10/17 03:18:10;;;;;;;6.53;4.65;;;;;;;3.43;77.28;100966.81;5025137;28;20028;-95
2022/10/17 03:20:38;;;;;;;5.55;4.63;;;;;;;3.57;76.98;100993.63;5024670;28;20032;-93
2022/10/17 03:23:04;;;;;;;7.47;5.72;;;;;;;3.49;77.05;100983.91;5025570;28;20097;-94
2022/10/17 03:25:29;;;;;;;7.25;5.10;;;;;;;3.36;77.38;100976.56;5025128;28;20028;-94
2022/10/17 03:27:58;;;;;;;10.02;5.25;;;;;;;3.31;77.65;100976.25;5025352;28;20032;-94
2022/10/17 03:30:23;;;;;;;6.68;5.07;;;;;;;3.28;77.62;100979.28;5020700;28;20102;-94
2022/10/17 03:32:49;;;;;;;7.80;5.13;;;;;;;3.29;78.28;100988.09;5005254;28;20025;-94
2022/10/17 03:35:14;;;;;;;9.85;5.07;;;;;;;3.39;77.47;101001.97;5011192;28;20040;-94
2022/10/17 03:37:40;;;;;;;7.75;4.80;;;;;;;3.37;77.45;100993.34;5024723;28;20024;-94
2022/10/17 03:40:08;;;;;;;9.60;5.53;;;;;;;3.42;77.47;100994.47;5024538;28;20108;-93
2022/10/17 03:42:33;;;;;;;10.93;5.45;;;;;;;3.44;77.40;100987.13;5041056;28;20028;-94
2022/10/17 03:44:59;;;;;;;12.88;5.20;;;;;;;3.41;77.13;100976.81;5024657;28;20024;-95
2022/10/17 03:47:24;;;;;;;25.35;7.60;;;;;;;3.50;76.85;100984.72;5040564;28;20429;-93
2022/10/17 03:49:52;;;;;;;6.57;4.18;;;;;;;3.53;76.18;101016.31;5040295;28;20032;-93
2022/10/17 03:52:17;;;;;;;8.18;5.75;;;;;;;3.36;76.16;101007.66;5025107;28;20103;-94
2022/10/17 03:54:43;;;;;;;10.45;4.95;;;;;;;3.26;76.99;101010.59;5024690;28;20042;-93
2022/10/17 03:57:08;;;;;;;9.15;5.15;;;;;;;3.18;76.92;100994.69;5024301;28;20032;-94
2022/10/17 03:59:34;;;;;;;10.35;5.22;;;;;;;3.18;77.19;101000.84;5023880;28;20035;-95
2022/10/17 04:01:59;;;;;;;7.60;4.75;;;;;;;3.16;77.29;100999.38;5024092;28;20027;-94
2022/10/17 04:04:25;;;;;;;9.55;5.28;;;;;;;3.26;77.12;101007.94;5024254;28;20043;-95
2022/10/17 04:06:51;;;;;;;12.27;6.93;;;;;;;3.21;76.60;101008.44;5037011;28;20029;-94
2022/10/17 04:09:16;;;;;;;19.88;6.57;;;;;;;3.24;77.11;101009.94;5004791;28;20037;-94
2022/10/17 04:11:42;;;;;;;9.98;5.15;;;;;;;3.32;76.90;101020.53;5016993;28;20449;-94
2022/10/17 04:14:08;;;;;;;11.45;5.20;;;;;;;3.26;76.54;101029.22;5041065;28;20505;-93
2022/10/17 04:16:33;;;;;;;7.88;5.68;;;;;;;3.13;76.53;101021.81;5023905;28;20119;-94
2022/10/17 04:18:59;;;;;;;7.25;5.32;;;;;;;3.05;76.73;101019.25;5024471;28;20066;-94
2022/10/17 04:21:25;;;;;;;12.65;5.63;;;;;;;2.96;76.88;101012.31;5041790;28;20028;-94
2022/10/17 04:23:54;;;;;;;10.38;5.13;;;;;;;3.02;77.36;101023.06;5023863;28;20464;-94
2022/10/17 04:26:20;;;;;;;11.50;5.15;;;;;;;2.99;78.34;101001.34;5024067;28;20032;-94
2022/10/17 04:28:45;;;;;;;9.70;6.78;;;;;;;3.14;77.77;101028.00;5041005;28;20045;-95
2022/10/17 04:31:12;;;;;;;9.77;6.00;;;;;;;3.18;77.69;101030.09;5023742;28;20028;-94
2022/10/17 04:33:38;;;;;;;9.07;5.22;;;;;;;3.24;77.42;101036.56;5024145;28;20462;-94
2022/10/17 04:36:05;;;;;;;7.32;5.43;;;;;;;3.09;76.83;101035.66;5022429;28;20024;-94
2022/10/17 04:38:30;;;;;;;9.10;5.25;;;;;;;3.01;77.01;101028.59;5024895;28;20162;-95
2022/10/17 04:41:03;;;;;;;8.02;5.60;;;;;;;3.03;76.98;101015.94;5041113;28;20028;-93
2022/10/17 04:43:29;;;;;;;8.05;5.25;;;;;;;3.42;76.63;101041.53;5024832;28;20444;-93
2022/10/17 04:45:56;;;;;;;10.52;6.22;;;;;;;3.27;77.42;101016.72;5040874;28;20025;-94
2022/10/17 04:48:22;;;;;;;18.35;5.90;;;;;;;3.40;76.23;101024.91;5024977;28;20046;-95
2022/10/17 04:51:13;;;;;;;11.82;5.88;;;;;;;3.40;76.28;101027.59;5047949;28;20024;-92
2022/10/17 04:53:39;;;;;;;13.38;6.45;;;;;;;3.44;75.67;101048.38;5043195;28;20068;-94
2022/10/17 04:56:09;;;;;;;12.75;7.03;;;;;;;3.43;76.00;101051.19;5024723;28;20113;-94
2022/10/17 04:58:35;;;;;;;10.35;6.13;;;;;;;3.41;76.07;101039.91;5041594;28;20039;-96
2022/10/17 05:01:07;;;;;;;9.88;6.60;;;;;;;3.43;76.34;101049.34;5024773;28;20094;-96
2022/10/17 05:03:33;;;;;;;;;;;;;;;3.64;76.19;101072.63;5043982;28;20024;-94
2022/10/17 05:06:03;;;;;;;22.55;5.50;;;;;;;3.69;76.26;101057.94;5040864;28;19908;-93
2022/10/17 05:08:28;;;;;;;8.68;5.18;;;;;;;3.78;76.63;101056.88;5021340;28;20036;-91
2022/10/17 05:10:54;;;;;;;11.13;4.95;;;;;;;3.79;76.35;101042.53;5035953;28;20414;-92
2022/10/17 05:13:19;;;;;;;9.68;5.70;;;;;;;3.94;75.97;101056.69;5022145;28;20086;-93
2022/10/17 05:15:45;;;;;;;9.55;4.95;;;;;;;4.09;76.00;101061.19;5019933;28;20016;-93
2022/10/17 05:18:10;;;;;;;7.50;5.10;;;;;;;4.01;76.02;101060.28;5020639;28;20024;-95
2022/10/17 05:20:38;;;;;;;10.88;4.97;;;;;;;4.00;75.73;101060.44;5017775;28;20029;-95
2022/10/17 05:23:03;;;;;;;7.63;4.65;;;;;;;4.00;75.95;101065.78;5026667;28;20016;-93
2022/10/17 05:25:40;;;;;;;7.90;4.85;;;;;;;4.05;75.50;101066.06;5027098;28;20035;-96
2022/10/17 05:28:20;;;;;;;6.32;5.05;;;;;;;4.20;74.86;101061.56;5028585;28;20421;-96
2022/10/17 05:30:46;;;;;;;9.95;5.40;;;;;;;4.22;74.48;101067.53;5006983;28;20043;-94
2022/10/17 05:33:11;;;;;;;8.63;5.72;;;;;;;4.16;74.43;101072.78;5004493;28;20021;-92
2022/10/17 05:35:37;;;;;;;10.73;5.22;;;;;;;4.34;74.25;101094.56;5022314;28;20028;-94
2022/10/17 05:38:02;;;;;;;8.18;5.50;;;;;;;4.18;74.14;101082.25;5020023;28;20027;-96
2022/10/17 05:40:28;;;;;;;6.47;4.93;;;;;;;4.08;74.26;101076.34;5019493;28;20028;-91
2022/10/17 05:42:53;;;;;;;13.10;8.30;;;;;;;4.11;74.11;101084.00;5019503;28;20036;-93
2022/10/17 05:45:19;;;;;;;29.98;17.77;;;;;;;4.09;74.28;101079.84;5019020;28;20021;-90
2022/10/17 05:47:44;;;;;;;6.88;4.50;;;;;;;4.12;74.37;101090.97;5001785;28;20056;-91
2022/10/17 05:50:13;;;;;;;13.70;6.20;;;;;;;4.12;74.62;101080.31;5003961;28;20025;-96
2022/10/17 05:52:46;;;;;;;8.60;5.03;;;;;;;4.34;74.59;101083.91;5028499;28;20108;-96
2022/10/17 05:55:20;;;;;;;135.57;79.93;;;;;;;4.54;73.41;101089.47;5032595;28;20029;-96
2022/10/17 05:57:49;;;;;;;11.55;7.72;;;;;;;4.66;72.79;101087.16;5005213;28;20049;-95
2022/10/17 06:00:17;;;;;;;7.28;5.38;;;;;;;4.75;72.98;101103.88;5013861;28;20109;-94
2022/10/17 06:02:46;;;;;;;9.98;5.97;;;;;;;4.76;73.02;101105.56;5019814;28;20033;-91
2022/10/17 06:05:12;;;;;;;8.45;5.70;;;;;;;5.02;73.11;101115.69;5021348;28;20558;-96
2022/10/17 06:08:17;;;;;;;;;;;;;;;;;;;;;
2022/10/17 06:10:45;;;;;;;14.52;6.88;;;;;;;5.14;72.41;101095.47;5058437;28;20112;-93
2022/10/17 06:13:13;;;;;;;10.13;6.55;;;;;;;5.41;71.89;101125.94;5019066;28;20021;-96
2022/10/17 06:15:42;;;;;;;14.18;6.93;;;;;;;5.31;71.45;101108.59;5026731;28;20100;-92
2022/10/17 06:18:07;;;;;;;16.23;6.22;;;;;;;5.34;71.37;101094.88;5040211;28;20029;-91
2022/10/17 06:20:33;;;;;;;9.40;6.13;;;;;;;5.67;71.45;101119.22;5004695;28;20026;-92
2022/10/17 06:23:01;;;;;;;17.08;6.85;;;;;;;5.77;70.28;101105.50;5001983;28;20407;-91
2022/10/17 06:25:28;;;;;;;9.50;6.72;;;;;;;5.82;69.61;101095.06;5015349;28;20080;-92
2022/10/17 06:27:53;;;;;;;8.77;5.55;;;;;;;5.98;69.72;101102.00;4992595;28;20091;-95
2022/10/17 06:33:49;;;;;;;8.85;5.55;;;;;;;6.51;68.13;101123.69;4998488;28;20066;-94
2022/10/17 06:36:18;;;;;;;9.05;5.38;;;;;;;6.66;67.65;101129.75;4965161;28;20030;-93
2022/10/17 06:38:44;;;;;;;20.10;14.50;;;;;;;6.66;67.71;101115.50;5042257;22;20035;-95
2022/10/17 06:41:13;;;;;;;8.10;6.00;;;;;;;6.85;67.42;101128.19;5020144;28;20037;-93
2022/10/17 06:43:39;;;;;;;11.88;8.48;;;;;;;7.00;66.50;101135.22;5022729;28;20048;-91
2022/10/17 06:46:05;;;;;;;13.90;6.60;;;;;;;7.06;66.75;101131.75;5002261;28;20025;-91
2022/10/17 06:48:31;;;;;;;12.23;5.45;;;;;;;7.15;66.56;101130.53;5019371;28;20095;-93
2022/10/17 06:51:03;;;;;;;7.30;3.78;;;;;;;7.27;65.35;101128.09;4999493;28;20480;-93
2022/10/17 06:53:29;;;;;;;7.22;4.68;;;;;;;7.44;65.42;101155.31;5008298;28;20111;-91
2022/10/17 06:56:00;;;;;;;10.45;5.07;;;;;;;7.45;64.77;101133.69;5001926;28;20060;-95
2022/10/17 06:58:27;;;;;;;9.20;5.72;;;;;;;7.68;64.96;101151.25;4993903;28;20126;-96
2022/10/17 07:04:55;;;;;;;4.45;3.45;;;;;;;7.80;64.07;101132.66;4985854;28;20106;-96
2022/10/17 07:07:42;;;;;;;7.63;4.25;;;;;;;7.78;64.60;101119.47;4937458;29;20036;-96
2022/10/17 07:13:56;;;;;;;8.70;3.80;;;;;;;8.04;63.48;101112.44;4893553;29;20073;-89
2022/10/17 07:16:22;;;;;;;7.60;4.90;;;;;;;8.33;62.56;101121.88;4927590;28;20106;-91
2022/10/17 07:18:50;;;;;;;7.60;4.35;;;;;;;8.42;61.83;101119.81;4951411;28;20030;-91
2022/10/17 07:21:15;;;;;;;8.02;4.72;;;;;;;8.66;62.20;101127.16;4943527;29;20039;-91
2022/10/17 07:23:43;;;;;;;7.40;5.20;;;;;;;8.90;62.12;101132.84;4926996;28;20030;-92
2022/10/17 07:26:13;;;;;;;9.52;7.05;;;;;;;9.00;61.63;101132.38;4927302;28;20089;-94
2022/10/17 07:28:40;;;;;;;9.13;4.93;;;;;;;9.17;60.19;101130.00;4946962;28;20030;-92
2022/10/17 07:31:10;;;;;;;8.27;4.50;;;;;;;9.35;60.11;101151.63;4946566;28;20042;-95
2022/10/17 07:33:36;;;;;;;10.10;5.25;;;;;;;9.58;60.05;101150.22;4944923;28;20501;-92
2022/10/17 07:36:01;;;;;;;8.13;4.45;;;;;;;9.55;59.99;101130.00;4945042;28;20034;-92
2022/10/17 07:38:27;;;;;;;10.85;5.78;;;;;;;9.66;60.82;101139.22;4945614;28;20027;-94
2022/10/17 07:41:02;;;;;;;12.57;5.15;;;;;;;9.95;59.22;101150.38;4960465;28;20045;-93
2022/10/17 07:43:28;;;;;;;10.35;6.97;;;;;;;9.83;58.63;101134.91;4977492;28;20053;-93
2022/10/17 07:45:54;;;;;;;10.70;6.43;;;;;;;10.14;58.36;101141.28;4953259;28;20100;-95
2022/10/17 07:48:35;;;;;;;6.85;4.18;;;;;;;10.34;56.75;101154.56;4966762;28;20027;-96
2022/10/17 07:51:02;;;;;;;6.93;4.93;;;;;;;10.35;57.58;101142.75;4960729;28;20463;-91
2022/10/17 07:53:48;;;;;;;10.48;4.53;;;;;;;10.36;57.64;101157.06;4950232;28;20112;-96
2022/10/17 07:56:14;;;;;;;26.83;17.02;;;;;;;10.40;57.17;101134.84;5012568;28;20025;-93
2022/10/17 07:58:39;;;;;;;10.07;6.38;;;;;;;10.63;56.47;101138.72;4950592;28;20046;-91
2022/10/17 08:01:13;;;;;;;9.23;5.20;;;;;;;10.79;56.84;101135.44;4957797;28;20524;-93
2022/10/17 08:03:41;;;;;;;9.82;5.55;;;;;;;10.94;56.56;101131.53;4976392;28;20105;-92
2022/10/17 08:06:09;;;;;;;8.32;4.88;;;;;;;11.06;54.72;101144.00;4946927;28;20034;-94
2022/10/17 08:08:37;;;;;;;6.85;4.50;;;;;;;11.09;54.34;101138.13;4947204;28;20030;-95
2022/10/17 08:11:07;;;;;;;8.13;4.38;;;;;;;11.31;55.04;101141.16;4962346;28;20037;-94
2022/10/17 08:13:33;;;;;;;10.82;4.85;;;;;;;11.43;55.27;101132.25;4945532;28;20030;-96
2022/10/17 08:16:00;;;;;;;6.20;4.20;;;;;;;11.58;54.32;101124.56;4944882;28;20479;-96
2022/10/17 08:18:26;;;;;;;11.27;4.35;;;;;;;11.81;53.51;101139.16;4962003;28;20038;-96
2022/10/17 08:20:51;;;;;;;13.65;4.47;;;;;;;11.81;53.31;101109.47;4946995;28;20027;-95
2022/10/17 08:23:17;;;;;;;8.18;4.10;;;;;;;12.12;52.77;101138.03;4950323;28;20050;-95
2022/10/17 08:25:42;;;;;;;6.32;3.92;;;;;;;12.27;52.01;101124.88;4950423;28;20026;-95
2022/10/17 08:28:08;;;;;;;7.43;4.25;;;;;;;12.36;50.36;101121.81;4950100;28;20042;-94
2022/10/17 08:30:37;;;;;;;6.65;4.20;;;;;;;12.50;50.66;101121.31;4954150;28;20496;-96
2022/10/17 08:33:02;;;;;;;6.30;3.85;;;;;;;12.65;48.51;101120.78;4954489;28;20061;-95
2022/10/17 08:35:28;;;;;;;154.10;69.85;;;;;;;12.83;47.86;101132.50;4946792;28;20041;-95
2022/10/17 08:37:53;;;;;;;18.27;11.90;;;;;;;12.84;47.74;101120.63;4962223;28;20169;-94
2022/10/17 08:40:26;;;;;;;7.10;3.88;;;;;;;12.89;45.68;101136.97;4959863;28;20030;-93
2022/10/17 08:43:13;;;;;;;5.72;3.53;;;;;;;13.06;45.99;101135.13;4944644;28;20546;-91
2022/10/17 08:45:46;;;;;;;5.15;3.30;;;;;;;13.21;45.69;101129.16;4991389;28;20034;-91
2022/10/17 08:48:25;;;;;;;8.45;4.05;;;;;;;13.43;47.84;101137.44;4971804;28;20037;-96
2022/10/17 08:51:11;;;;;;;4.90;3.30;;;;;;;13.32;47.46;101109.41;5006282;28;20037;-94
2022/10/17 08:54:03;;;;;;;5.82;3.83;;;;;;;13.36;46.84;101114.31;5039425;28;20047;-93
2022/10/17 08:56:47;;;;;;;7.47;4.57;;;;;;;13.52;46.46;101110.81;5001337;28;20044;-92
2022/10/17 08:59:21;;;;;;;7.00;3.83;;;;;;;13.59;47.08;101107.94;4987963;28;20112;-93
2022/10/17 09:01:53;;;;;;;7.13;3.97;;;;;;;13.59;48.22;101097.09;5009414;28;20038;-95
2022/10/17 09:04:40;;;;;;;7.03;4.13;;;;;;;13.95;46.59;101137.22;5033688;28;20063;-96
2022/10/17 09:14:31;;;;;;;7.07;3.17;;;;;;;14.12;47.04;101131.78;5000910;28;20419;-93
2022/10/17 09:17:14;;;;;;;8.20;4.72;;;;;;;14.26;47.48;101124.13;5037399;28;20024;-95
2022/10/17 09:19:57;;;;;;;7.85;3.58;;;;;;;14.23;46.83;101111.06;5058615;28;20025;-95
2022/10/17 09:22:24;;;;;;;7.57;3.72;;;;;;;14.31;47.90;101113.34;5009153;28;20017;-92
2022/10/17 09:24:54;;;;;;;9.50;3.65;;;;;;;14.37;48.20;101108.81;5005722;28;20086;-94
2022/10/17 09:27:52;;;;;;;25.52;16.50;;;;;;;14.53;47.40;101123.41;5022928;28;20027;-96
2022/10/17 09:30:45;;;;;;;6.60;4.43;;;;;;;14.60;47.00;101118.63;5029822;28;20032;-93
2022/10/17 09:33:12;;;;;;;4.43;3.17;;;;;;;14.49;46.64;101095.16;5010673;28;20108;-93
2022/10/17 09:35:41;;;;;;;6.35;4.13;;;;;;;14.58;46.66;101096.38;4999044;28;20022;-94
2022/10/17 09:38:17;;;;;;;7.15;4.70;;;;;;;14.68;46.09;101095.69;4991697;28;20039;-93
2022/10/17 09:40:45;;;;;;;6.13;3.40;;;;;;;14.76;46.33;101089.81;5003582;28;20096;-94
2022/10/17 09:43:14;;;;;;;6.60;4.43;;;;;;;14.78;45.74;101087.66;5003831;28;20033;-93
2022/10/17 09:46:13;;;;;;;5.68;3.33;;;;;;;14.93;45.96;101097.84;5003219;28;20029;-94
2022/10/17 09:48:44;;;;;;;5.50;3.30;;;;;;;15.05;45.75;101103.16;5022801;28;20550;-93
2022/10/17 09:55:09;;;;;;;5.30;3.08;;;;;;;14.92;44.70;101091.63;4972204;28;20078;-96
2022/10/17 09:57:59;;;;;;;5.50;3.10;;;;;;;14.84;44.81;101085.84;5046170;28;20032;-96
2022/10/17 10:00:41;;;;;;;7.65;3.58;;;;;;;14.98;45.13;101088.94;5010553;28;20053;-96
2022/10/17 10:03:26;;;;;;;4.85;3.03;;;;;;;15.10;44.93;101106.72;5022885;28;20411;-96
2022/10/17 10:06:00;;;;;;;8.32;3.60;;;;;;;15.04;45.16;101087.94;5002606;28;20022;-94
2022/10/17 10:09:12;;;;;;;5.25;3.22;;;;;;;15.26;45.14;101106.88;5004274;28;20366;-95
2022/10/17 10:12:10;;;;;;;;;;;;;;;15.12;45.00;101101.03;5030419;28;20025;-95
2022/10/17 10:14:38;;;;;;;4.38;2.80;;;;;;;15.17;44.77;101079.41;5023839;28;19912;-94
2022/10/17 10:17:06;;;;;;;5.88;2.78;;;;;;;15.15;45.05;101078.84;5023650;28;20128;-96
2022/10/17 10:19:47;;;;;;;6.20;2.88;;;;;;;15.22;45.58;101076.72;5004391;28;20108;-96
2022/10/17 10:22:29;;;;;;;3.97;2.53;;;;;;;15.26;45.64;101069.69;5012890;28;20060;-96
2022/10/17 10:25:16;;;;;;;4.50;2.88;;;;;;;15.40;46.02;101071.97;5015518;28;20021;-96
2022/10/17 10:27:48;;;;;;;5.05;2.53;;;;;;;15.41;45.32;101077.16;5027621;28;20043;-95
2022/10/17 10:30:29;;;;;;;3.70;2.15;;;;;;;15.52;45.64;101075.31;5007727;28;20059;-96
2022/10/17 10:32:55;;;;;;;3.33;2.20;;;;;;;15.67;45.51;101077.38;5006236;28;20123;-94
2022/10/17 10:35:22;;;;;;;5.22;2.08;;;;;;;15.76;45.05;101087.50;5006689;28;20029;-95
2022/10/17 10:37:55;;;;;;;4.45;2.63;;;;;;;15.63;45.50;101066.19;5023004;28;20420;-94
2022/10/17 10:40:31;;;;;;;3.20;2.08;;;;;;;15.87;44.75;101090.28;5021906;28;20056;-96
2022/10/17 10:42:58;;;;;;;3.70;2.38;;;;;;;15.72;45.14;101072.00;5020247;28;20475;-93
2022/10/17 10:45:46;;;;;;;3.50;1.98;;;;;;;15.68;45.08;101070.84;5020294;28;20175;-92
2022/10/17 10:48:25;;;;;;;5.28;2.33;;;;;;;15.89;45.54;101091.66;5009442;28;20120;-94
2022/10/17 10:51:09;;;;;;;5.47;2.35;;;;;;;15.93;45.17;101081.09;5020955;28;20056;-95
2022/10/17 10:54:13;;;;;;;6.15;2.40;;;;;;;15.84;45.30;101083.47;5015132;28;20115;-95
2022/10/17 10:56:46;;;;;;;3.70;1.95;;;;;;;15.89;45.00;101074.53;4961570;28;20046;-95
2022/10/17 10:59:24;;;;;;;3.70;2.30;;;;;;;15.95;45.04;101073.50;4950256;29;20023;-96
2022/10/17 11:02:08;;;;;;;;;;;;;;;;;;;;;
2022/10/17 11:04:34;;;;;;;3.00;1.77;;;;;;;16.01;45.01;101068.91;5059143;28;20107;-95
2022/10/17 11:07:03;;;;;;;3.85;1.92;;;;;;;15.89;45.25;101050.91;5041137;28;20056;-95
2022/10/17 11:09:41;;;;;;;5.32;2.92;;;;;;;15.93;45.32;101040.34;5007789;28;20102;-96
2022/10/17 11:12:46;;;;;;;6.38;2.38;;;;;;;15.86;45.00;101035.16;5024617;28;20021;-94
2022/10/17 11:15:48;;;;;;;4.22;2.45;;;;;;;15.77;44.16;101031.28;5028308;28;20040;-96
2022/10/17 11:18:25;;;;;;;2.75;1.85;;;;;;;15.96;44.62;101051.50;5064955;28;20029;-93
2022/10/17 11:20:58;;;;;;;;;;;;;;;15.97;44.65;101046.88;5023647;28;20032;-96
2022/10/17 11:23:42;;;;;;;6.00;2.33;;;;;;;15.88;44.79;101019.41;5015380;28;19944;-96
2022/10/17 11:26:12;;;;;;;3.38;2.17;;;;;;;15.97;44.21;101027.88;5007364;28;20147;-95
2022/10/17 11:28:43;;;;;;;6.97;2.50;;;;;;;15.93;44.61;101019.41;5016738;28;20045;-93
2022/10/17 11:31:12;;;;;;;4.07;2.13;;;;;;;15.92;44.21;101022.41;5002439;28;20028;-95
2022/10/17 11:34:18;;;;;;;5.55;2.35;;;;;;;16.13;44.20;101035.00;5018754;28;20033;-94
2022/10/17 11:36:45;;;;;;;3.67;2.35;;;;;;;16.06;44.54;101022.75;5032549;28;20029;-94
2022/10/17 11:39:25;;;;;;;2.33;1.70;;;;;;;16.09;43.79;101020.31;5022673;28;20032;-94
2022/10/17 11:42:01;;;;;;;8.50;3.25;;;;;;;16.04;43.77;101005.88;4997104;28;20021;-95
2022/10/17 11:44:29;;;;;;;5.70;2.50;;;;;;;16.17;43.52;101030.69;5004765;28;20115;-96
2022/10/17 11:47:06;;;;;;;3.30;2.53;;;;;;;16.13;43.22;101007.84;5038243;28;20090;-95
2022/10/17 11:49:44;;;;;;;6.07;2.30;;;;;;;16.10;43.41;100991.25;5006666;28;20033;-94
2022/10/17 11:52:49;;;;;;;3.88;2.20;;;;;;;16.18;42.86;100996.16;4987114;28;20492;-95
2022/10/17 11:55:19;;;;;;;4.40;2.10;;;;;;;16.01;43.10;100995.56;4993961;28;20044;-95
2022/10/17 11:58:53;;;;;;;6.03;2.45;;;;;;;16.14;43.52;101006.78;5013782;28;20036;-96
2022/10/17 12:09:39;;;;;;;3.70;2.40;;;;;;;16.24;42.76;100989.66;4984579;28;20050;-96
2022/10/17 12:12:25;;;;;;;3.58;2.38;;;;;;;16.22;42.53;100975.53;4942532;29;20040;-96
2022/10/17 12:14:51;;;;;;;6.22;2.22;;;;;;;16.32;41.90;100985.63;4903215;29;20036;-94
2022/10/17 12:18:28;;;;;;;2.85;1.75;;;;;;;16.38;41.76;100992.72;4872589;29;20071;-96
2022/10/17 12:21:15;;;;;;;4.07;2.00;;;;;;;16.31;42.33;100981.25;4920457;29;20032;-93
2022/10/17 12:23:53;;;;;;;3.42;2.13;;;;;;;16.34;42.26;100978.03;4888452;29;20042;-94
2022/10/17 12:26:28;;;;;;;12.40;5.13;;;;;;;16.40;42.17;100981.56;4919968;29;20035;-96